Terminal Aerodrome Forecast
Issued by NWS

Home | Current Version | Previous Version | Text Only | Print | Product List | Glossary On
Versions: 1 2 3 4 5 6 7 8 9 10 11 12 13 14 15 16 17 18 19 20
000
FTUS43 KFGF 250500
TAFDVL
TAF
KDVL 250535Z 2506/2606 29010KT P6SM SCT250
     FM250630 30009KT P6SM OVC012
     FM251200 33012KT P6SM OVC007
     FM251800 34010KT P6SM OVC015
      AMD LTD TO CLD VIS AND WIND=

USA.gov is the U.S. government's official web portal to all federal, state and local government web resources and services.